Time;durP1;ratioP1;P1;durP2;ratioP2;P2;SDS_P1;SDS_P2;PMS_P1;PMS_P2;Temp;Humidity;BMP_temperature;BMP_pressure;BME280_temperature;BME280_humidity;BME280_pressure;Samples;Min_cycle;Max_cycle;Signal;HPM_P1;HPM_P2
2024/03/15 00:00:22;;;;;;;3.53;2.55;;;15.80;59.10;17.50;100512.00;;;;4999600;28;20224;-78
2024/03/15 00:02:50;;;;;;;3.33;2.60;;;15.80;59.10;17.50;100508.00;;;;4989749;28;20196;-79
2024/03/15 00:05:19;;;;;;;3.17;2.63;;;15.80;59.20;17.50;100500.00;;;;5015786;28;20876;-79
2024/03/15 00:07:46;;;;;;;3.00;2.70;;;15.80;59.30;17.60;100489.00;;;;5014876;28;20200;-79
2024/03/15 00:10:14;;;;;;;3.28;2.72;;;15.80;59.40;17.60;100490.00;;;;5015251;28;20204;-79
2024/03/15 00:12:41;;;;;;;3.17;2.58;;;15.90;59.50;17.60;100491.00;;;;5017228;28;20207;-79
2024/03/15 00:15:09;;;;;;;5.40;3.70;;;15.90;59.50;17.60;100484.00;;;;5002040;28;20274;-79
2024/03/15 00:17:37;;;;;;;5.43;3.05;;;15.90;59.60;17.60;100476.00;;;;4999102;28;20202;-80
2024/03/15 00:20:06;;;;;;;3.47;2.55;;;15.90;59.70;17.60;100482.00;;;;5000634;28;20196;-79
2024/03/15 00:22:34;;;;;;;3.58;3.20;;;15.90;59.70;17.60;100490.00;;;;5003262;28;20206;-78
2024/03/15 00:25:01;;;;;;;5.43;3.42;;;16.00;59.70;17.70;100494.00;;;;5009284;28;20283;-79
2024/03/15 00:27:29;;;;;;;3.72;2.97;;;16.00;59.80;17.70;100488.00;;;;5018133;28;20708;-79
2024/03/15 00:29:57;;;;;;;5.63;3.83;;;16.00;59.90;17.70;100482.00;;;;4999806;28;20192;-78
2024/03/15 00:32:25;;;;;;;3.58;3.05;;;16.00;59.90;17.70;100485.00;;;;4998282;28;20198;-76
2024/03/15 00:34:52;;;;;;;3.70;3.25;;;16.10;60.10;17.70;100478.00;;;;4998581;28;20196;-79
2024/03/15 00:37:19;;;;;;;5.15;3.47;;;16.10;60.10;17.70;100477.00;;;;5028250;28;20199;-80
2024/03/15 00:39:47;;;;;;;4.20;3.40;;;16.10;60.10;17.80;100471.00;;;;5002053;28;20691;-79
2024/03/15 00:42:14;;;;;;;4.93;3.15;;;16.10;60.10;17.80;100474.00;;;;4999827;28;20229;-78
2024/03/15 00:44:42;;;;;;;4.35;3.33;;;16.10;60.10;17.80;100469.00;;;;4998534;28;20223;-79
2024/03/15 00:47:10;;;;;;;5.75;3.05;;;16.20;60.20;17.80;100467.00;;;;5014755;28;20232;-79
2024/03/15 00:49:37;;;;;;;4.28;3.40;;;16.20;60.20;17.90;100464.00;;;;5025993;28;20192;-79
2024/03/15 00:52:04;;;;;;;5.10;3.70;;;16.20;60.50;17.90;100471.00;;;;5005498;28;20562;-79
2024/03/15 00:54:31;;;;;;;3.47;3.08;;;16.20;60.20;17.90;100477.00;;;;5013163;28;20212;-79
2024/03/15 00:56:59;;;;;;;7.35;4.10;;;16.30;60.40;17.90;100461.00;;;;5009334;28;20580;-80
2024/03/15 00:59:26;;;;;;;4.63;4.03;;;16.20;60.30;17.90;100457.00;;;;5030511;28;20198;-79
2024/03/15 01:01:53;;;;;;;5.05;3.47;;;16.30;60.40;17.90;100457.00;;;;5014157;28;20582;-80
2024/03/15 01:04:20;;;;;;;4.43;3.20;;;16.30;60.40;17.90;100455.00;;;;5012281;28;20228;-79
2024/03/15 01:06:48;;;;;;;4.28;3.88;;;16.30;60.40;18.00;100463.00;;;;5019600;28;20246;-78
2024/03/15 01:09:17;;;;;;;4.97;3.50;;;16.40;60.50;18.00;100467.00;;;;5014377;28;20200;-78
2024/03/15 01:11:44;;;;;;;7.10;4.03;;;16.40;60.50;18.00;100464.00;;;;5010023;28;20196;-79
2024/03/15 01:14:11;;;;;;;5.43;4.00;;;16.40;60.50;18.00;100459.00;;;;4998165;28;20686;-80
2024/03/15 01:16:38;;;;;;;7.00;4.13;;;16.40;60.50;18.00;100454.00;;;;4998182;28;20298;-79
2024/03/15 01:19:05;;;;;;;5.25;3.85;;;16.40;60.50;18.10;100451.00;;;;5010223;28;20278;-76
2024/03/15 01:21:33;;;;;;;3.90;3.28;;;16.40;60.60;18.10;100453.00;;;;5038772;28;20237;-78
2024/03/15 01:24:01;;;;;;;5.57;4.00;;;16.50;60.60;18.10;100453.00;;;;5016443;28;20203;-78
2024/03/15 01:26:27;;;;;;;4.05;3.60;;;16.50;60.60;18.10;100449.00;;;;5017362;28;20230;-78
2024/03/15 01:28:54;;;;;;;4.65;3.25;;;16.50;60.60;18.10;100446.00;;;;5017445;28;20204;-78
2024/03/15 01:31:21;;;;;;;5.93;4.38;;;16.50;60.50;18.10;100444.00;;;;5001001;28;20204;-77
2024/03/15 01:33:49;;;;;;;4.70;3.80;;;16.50;60.50;18.10;100446.00;;;;5017238;28;20199;-78
2024/03/15 01:36:17;;;;;;;7.82;3.92;;;16.50;61.20;18.10;100454.00;;;;5017556;28;20544;-78
2024/03/15 01:38:44;;;;;;;8.00;3.60;;;16.60;60.60;18.10;100442.00;;;;4998381;28;20207;-79
2024/03/15 01:41:12;;;;;;;4.32;3.90;;;16.60;60.50;18.20;100440.00;;;;4999107;28;20687;-78
2024/03/15 01:43:48;;;;;;;4.78;3.85;;;16.60;60.50;18.10;100439.00;;;;5022887;28;20296;-79
2024/03/15 01:46:15;;;;;;;6.07;3.55;;;16.60;60.60;18.20;100437.00;;;;5011445;28;20211;-78
2024/03/15 01:48:42;;;;;;;4.70;3.72;;;16.60;60.50;18.20;100439.00;;;;5018018;28;20275;-79
2024/03/15 01:51:10;;;;;;;5.40;4.00;;;16.60;60.50;18.20;100444.00;;;;5011526;28;20608;-78
2024/03/15 01:53:37;;;;;;;4.72;3.30;;;16.60;60.50;18.20;100442.00;;;;5006597;28;20290;-79
2024/03/15 01:56:04;;;;;;;4.95;3.92;;;16.60;60.60;18.20;100435.00;;;;5009421;28;20289;-79
2024/03/15 01:58:31;;;;;;;4.93;3.75;;;16.60;60.60;18.30;100428.00;;;;5005412;28;20283;-79
2024/03/15 02:00:58;;;;;;;5.53;4.20;;;16.60;60.60;18.30;100431.00;;;;4999799;28;20572;-80
2024/03/15 02:03:29;;;;;;;5.57;4.53;;;16.70;60.70;18.30;100435.00;;;;5006164;28;20226;-79
2024/03/15 02:05:57;;;;;;;5.30;3.80;;;16.70;60.60;18.30;100434.00;;;;5004807;28;20296;-79
2024/03/15 02:08:24;;;;;;;4.57;3.83;;;16.70;60.70;18.30;100434.00;;;;4988140;28;20200;-79
2024/03/15 02:10:52;;;;;;;4.63;3.60;;;16.70;60.60;18.30;100434.00;;;;5004807;28;20202;-79
2024/03/15 02:13:19;;;;;;;5.88;4.00;;;16.70;60.70;18.30;100435.00;;;;4989080;28;20773;-80
2024/03/15 02:15:46;;;;;;;4.60;3.45;;;16.70;60.70;18.30;100431.00;;;;4984956;28;20197;-80
2024/03/15 02:18:13;;;;;;;4.18;3.42;;;16.70;60.70;18.40;100440.00;;;;5011529;28;20209;-80
2024/03/15 02:20:41;;;;;;;4.93;3.45;;;16.70;60.70;18.40;100438.00;;;;4997318;28;20219;-78
2024/03/15 02:23:08;;;;;;;5.25;3.70;;;16.70;60.70;18.40;100443.00;;;;5001873;28;20204;-79
2024/03/15 02:25:36;;;;;;;6.03;3.55;;;16.80;60.80;18.40;100438.00;;;;5000228;28;20193;-80
2024/03/15 02:28:06;;;;;;;5.25;3.30;;;16.80;60.80;18.40;100436.00;;;;4996303;28;20273;-80
2024/03/15 02:30:34;;;;;;;7.05;3.55;;;16.80;60.80;18.40;100443.00;;;;4994789;28;20725;-80
2024/03/15 02:33:02;;;;;;;5.25;3.25;;;16.80;60.70;18.40;100442.00;;;;4987094;28;20279;-79
2024/03/15 02:35:30;;;;;;;4.32;3.38;;;16.80;60.80;18.40;100440.00;;;;4988040;28;20838;-78
2024/03/15 02:37:58;;;;;;;5.05;3.45;;;16.80;60.80;18.40;100443.00;;;;5006632;28;20227;-80
2024/03/15 02:40:25;;;;;;;4.47;3.30;;;16.80;60.70;18.40;100436.00;;;;5003707;28;20274;-76
2024/03/15 02:42:52;;;;;;;4.82;3.22;;;16.90;60.80;18.40;100437.00;;;;5003266;28;20282;-81
2024/03/15 02:45:21;;;;;;;4.32;3.42;;;16.80;60.80;18.40;100437.00;;;;4989622;28;20203;-77
2024/03/15 02:47:48;;;;;;;4.32;3.15;;;16.90;60.90;18.50;100431.00;;;;4992718;28;20243;-80
2024/03/15 02:50:15;;;;;;;4.47;3.47;;;16.90;60.90;18.50;100431.00;;;;5006313;28;20196;-79
2024/03/15 02:52:43;;;;;;;4.78;3.67;;;16.90;60.80;18.50;100434.00;;;;4993444;28;20283;-81
2024/03/15 02:55:11;;;;;;;4.97;3.70;;;16.90;60.80;18.50;100438.00;;;;5016872;28;20635;-80
2024/03/15 02:57:39;;;;;;;4.28;3.33;;;16.90;60.80;18.50;100434.00;;;;5000296;28;20215;-80
2024/03/15 03:00:08;;;;;;;5.10;3.65;;;16.90;60.80;18.50;100442.00;;;;4983782;28;20206;-78
2024/03/15 03:02:35;;;;;;;6.60;3.88;;;17.00;60.90;18.50;100441.00;;;;4985004;28;20196;-80
2024/03/15 03:05:03;;;;;;;4.78;3.65;;;16.90;61.50;18.50;100440.00;;;;4991598;28;20319;-80
2024/03/15 03:07:30;;;;;;;4.85;4.00;;;16.90;60.80;18.50;100446.00;;;;5003281;28;20708;-80
2024/03/15 03:09:57;;;;;;;5.75;3.67;;;17.00;60.90;18.50;100451.00;;;;4999268;28;20192;-79
2024/03/15 03:12:25;;;;;;;4.60;3.40;;;17.00;60.90;18.50;100453.00;;;;5000363;28;20591;-81
2024/03/15 03:14:52;;;;;;;4.57;3.28;;;17.00;60.90;18.50;100454.00;;;;4999560;28;20212;-80
2024/03/15 03:17:19;;;;;;;4.97;3.80;;;17.00;60.90;18.60;100458.00;;;;5007381;28;20224;-80
2024/03/15 03:19:46;;;;;;;4.47;3.60;;;17.00;61.00;18.60;100463.00;;;;5016404;28;20200;-79
2024/03/15 03:22:17;;;;;;;4.55;3.83;;;17.00;61.00;18.60;100467.00;;;;5013203;28;20203;-74
2024/03/15 03:24:46;;;;;;;4.63;3.55;;;17.00;61.10;18.60;100471.00;;;;5020253;28;20199;-74
2024/03/15 03:27:13;;;;;;;5.95;4.00;;;17.00;61.20;18.60;100462.00;;;;5009873;28;20317;-75
2024/03/15 03:29:41;;;;;;;4.03;3.17;;;17.00;61.30;18.60;100465.00;;;;5010312;28;20192;-75
2024/03/15 03:32:08;;;;;;;4.07;3.33;;;17.00;61.40;18.60;100451.00;;;;5017846;28;20252;-75
2024/03/15 03:34:37;;;;;;;3.85;3.45;;;17.00;61.50;18.60;100457.00;;;;5009855;28;20812;-75
2024/03/15 03:37:04;;;;;;;5.47;3.80;;;17.00;61.60;18.60;100458.00;;;;4999785;28;20259;-75
2024/03/15 03:39:31;;;;;;;5.20;3.38;;;16.90;61.60;18.50;100461.00;;;;5015588;28;20307;-75
2024/03/15 03:41:58;;;;;;;4.88;3.72;;;16.90;61.60;18.50;100461.00;;;;4999328;28;20258;-75
2024/03/15 03:44:26;;;;;;;3.80;3.40;;;16.90;61.70;18.50;100459.00;;;;5003632;28;20287;-76
2024/03/15 03:46:54;;;;;;;4.53;3.60;;;16.90;61.80;18.50;100443.00;;;;5017876;28;20260;-75
2024/03/15 03:49:21;;;;;;;6.30;3.72;;;16.90;61.90;18.50;100454.00;;;;4998852;28;20192;-75
2024/03/15 03:51:48;;;;;;;4.00;3.22;;;16.90;62.10;18.50;100456.00;;;;5004564;28;20199;-76
2024/03/15 03:54:15;;;;;;;4.80;3.97;;;16.80;62.10;18.50;100456.00;;;;5036196;28;20300;-75
2024/03/15 03:56:43;;;;;;;4.95;3.70;;;16.80;62.10;18.40;100457.00;;;;5011936;28;20196;-75
2024/03/15 03:59:10;;;;;;;6.38;3.67;;;16.80;62.20;18.40;100460.00;;;;5001679;28;20222;-75
2024/03/15 04:01:37;;;;;;;4.85;3.80;;;16.80;63.00;18.40;100455.00;;;;5017814;28;20202;-76
2024/03/15 04:04:05;;;;;;;5.65;3.72;;;16.70;62.30;18.40;100454.00;;;;5007259;28;20686;-75
2024/03/15 04:06:33;;;;;;;4.57;3.90;;;16.70;62.50;18.40;100454.00;;;;5024263;28;20230;-75
2024/03/15 04:09:00;;;;;;;5.57;3.83;;;16.70;62.40;18.40;100448.00;;;;5025499;28;20220;-75
2024/03/15 04:11:27;;;;;;;5.10;3.60;;;16.70;62.50;18.30;100453.00;;;;5014561;28;20576;-75
2024/03/15 04:13:54;;;;;;;3.92;3.33;;;16.70;62.60;18.30;100453.00;;;;5018111;28;20208;-75
2024/03/15 04:16:23;;;;;;;4.95;3.28;;;16.60;62.60;18.30;100444.00;;;;5005840;28;20196;-75
2024/03/15 04:18:50;;;;;;;5.00;3.55;;;16.60;62.70;18.30;100450.00;;;;5017811;28;20204;-75
2024/03/15 04:21:17;;;;;;;5.85;3.60;;;16.60;62.80;18.30;100449.00;;;;5001955;28;20207;-75
2024/03/15 04:23:44;;;;;;;5.28;3.40;;;16.60;63.60;18.30;100451.00;;;;4999146;28;20200;-75
2024/03/15 04:26:12;;;;;;;6.15;3.35;;;16.60;63.00;18.30;100453.00;;;;4998862;28;20287;-75
2024/03/15 04:28:39;;;;;;;4.85;3.92;;;16.60;63.30;18.30;100455.00;;;;4998456;28;20301;-75
2024/03/15 04:31:06;;;;;;;5.57;3.85;;;16.60;63.20;18.30;100450.00;;;;5002252;28;20214;-75
2024/03/15 04:33:35;;;;;;;5.10;3.60;;;16.60;63.20;18.30;100444.00;;;;5006562;28;20668;-75
2024/03/15 04:36:04;;;;;;;5.60;3.97;;;16.60;63.30;18.30;100442.00;;;;5032495;28;20189;-74
2024/03/15 04:38:32;;;;;;;4.90;3.47;;;16.60;63.40;18.30;100447.00;;;;5008639;28;20201;-75
2024/03/15 04:41:09;;;;;;;7.18;3.67;;;16.60;63.40;18.20;100449.00;;;;5003240;28;20763;-76
2024/03/15 04:43:36;;;;;;;5.32;3.38;;;16.50;63.40;18.30;100451.00;;;;5006417;28;20207;-73
2024/03/15 04:46:04;;;;;;;6.28;3.70;;;16.60;63.50;18.20;100445.00;;;;5003973;28;20187;-74
2024/03/15 04:48:32;;;;;;;4.72;3.20;;;16.50;63.50;18.20;100440.00;;;;5001574;28;20219;-74
2024/03/15 04:51:00;;;;;;;5.72;3.50;;;16.50;63.50;18.20;100443.00;;;;5036612;28;20944;-75
2024/03/15 04:53:28;;;;;;;3.78;3.20;;;16.50;63.60;18.20;100446.00;;;;5003240;28;20211;-73
2024/03/15 04:55:55;;;;;;;3.58;2.97;;;16.60;63.60;18.20;100439.00;;;;5025258;28;20252;-74
2024/03/15 04:58:23;;;;;;;6.63;3.53;;;16.50;63.70;18.20;100439.00;;;;5010034;28;20191;-74
2024/03/15 05:00:51;;;;;;;6.35;3.53;;;16.50;63.70;18.20;100432.00;;;;5006715;28;20193;-74
2024/03/15 05:03:18;;;;;;;4.40;2.80;;;16.50;63.70;18.20;100428.00;;;;5004901;28;20212;-73
2024/03/15 05:05:46;;;;;;;4.57;3.45;;;16.50;63.80;18.20;100432.00;;;;5004100;28;20315;-75
2024/03/15 05:08:13;;;;;;;4.45;3.47;;;16.60;63.90;18.20;100430.00;;;;4988933;28;20701;-75
2024/03/15 05:10:40;;;;;;;4.75;3.70;;;16.60;63.90;18.20;100435.00;;;;4990849;28;20196;-75
2024/03/15 05:13:07;;;;;;;5.60;3.50;;;16.50;63.90;18.20;100444.00;;;;5006954;28;20286;-74
2024/03/15 05:15:35;;;;;;;3.88;3.25;;;16.50;63.90;18.20;100445.00;;;;5001580;28;20207;-75
2024/03/15 05:18:02;;;;;;;3.40;2.92;;;16.60;64.00;18.20;100440.00;;;;4993083;28;20202;-74
2024/03/15 05:20:29;;;;;;;3.72;3.33;;;16.60;64.00;18.20;100433.00;;;;4986242;28;20283;-73
2024/03/15 05:22:56;;;;;;;5.60;3.20;;;16.60;64.00;18.20;100441.00;;;;5019613;28;20203;-75
2024/03/15 05:25:23;;;;;;;5.43;3.67;;;16.60;64.00;18.20;100450.00;;;;4993816;28;20191;-75
2024/03/15 05:27:51;;;;;;;4.40;3.50;;;16.60;64.10;18.20;100445.00;;;;5011845;28;20219;-74
2024/03/15 05:30:18;;;;;;;7.05;3.35;;;16.60;64.10;18.20;100447.00;;;;4998989;28;20200;-73
2024/03/15 05:32:45;;;;;;;4.90;3.72;;;16.60;64.20;18.20;100449.00;;;;5005135;28;20191;-73
2024/03/15 05:35:18;;;;;;;7.00;3.50;;;16.60;64.90;18.20;100437.00;;;;5000289;28;20195;-73
2024/03/15 05:37:45;;;;;;;4.78;3.05;;;16.60;64.30;18.20;100439.00;;;;4984051;28;20258;-73
2024/03/15 05:40:13;;;;;;;4.55;3.40;;;16.60;64.30;18.10;100444.00;;;;4982045;28;20215;-73
2024/03/15 05:42:41;;;;;;;4.75;3.22;;;16.60;64.30;18.10;100441.00;;;;5002485;28;20200;-74
2024/03/15 05:45:09;;;;;;;4.45;3.40;;;16.60;64.30;18.10;100453.00;;;;4968300;28;20208;-74
2024/03/15 05:47:36;;;;;;;3.65;3.30;;;16.50;64.40;18.10;100448.00;;;;4982648;28;20291;-74
2024/03/15 05:50:04;;;;;;;4.20;3.00;;;16.50;64.40;18.10;100450.00;;;;5008395;28;20195;-73
2024/03/15 05:52:33;;;;;;;4.38;3.10;;;16.50;64.40;18.10;100444.00;;;;5001662;28;20211;-73
2024/03/15 05:55:00;;;;;;;6.03;3.15;;;16.50;64.60;18.10;100438.00;;;;5001462;28;20307;-74
2024/03/15 05:57:28;;;;;;;5.28;3.22;;;16.50;64.60;18.10;100449.00;;;;4992699;28;20195;-75
2024/03/15 05:59:55;;;;;;;4.13;3.33;;;16.50;64.70;18.10;100448.00;;;;5005322;28;20226;-74
2024/03/15 06:02:22;;;;;;;6.57;3.55;;;16.50;64.70;18.10;100449.00;;;;4990489;28;20189;-75
2024/03/15 06:04:50;;;;;;;4.80;3.20;;;16.50;64.80;18.10;100449.00;;;;5014026;28;20223;-75
2024/03/15 06:07:17;;;;;;;6.57;3.17;;;16.50;64.80;18.10;100452.00;;;;5002678;28;20676;-75
2024/03/15 06:09:44;;;;;;;4.78;3.78;;;16.50;64.90;18.10;100449.00;;;;4999458;28;20223;-76
2024/03/15 06:12:11;;;;;;;3.97;3.35;;;16.50;65.00;18.10;100457.00;;;;5012021;28;20662;-75
2024/03/15 06:14:39;;;;;;;5.00;3.50;;;16.50;65.00;18.10;100464.00;;;;4997551;28;20781;-75
2024/03/15 06:17:07;;;;;;;5.22;3.38;;;16.50;65.00;18.10;100459.00;;;;5038709;28;20204;-75
2024/03/15 06:19:34;;;;;;;5.32;3.42;;;16.50;65.00;18.10;100469.00;;;;5004878;28;20211;-75
2024/03/15 06:22:01;;;;;;;3.88;3.15;;;16.50;65.00;18.10;100464.00;;;;5011975;28;20190;-75
2024/03/15 06:24:29;;;;;;;5.32;3.22;;;16.50;65.00;18.10;100463.00;;;;4997762;28;20625;-73
2024/03/15 06:26:59;;;;;;;5.78;3.13;;;16.50;65.10;18.10;100465.00;;;;5031814;28;20196;-75
2024/03/15 06:29:32;;;;;;;5.22;3.30;;;16.50;65.20;18.10;100469.00;;;;5007355;28;20654;-75
2024/03/15 06:31:59;;;;;;;3.33;3.03;;;16.50;65.20;18.10;100469.00;;;;5036970;28;20242;-75
2024/03/15 06:34:31;;;;;;;3.95;3.08;;;16.50;65.20;18.10;100472.00;;;;5022727;28;20206;-75
2024/03/15 06:36:59;;;;;;;4.68;3.65;;;16.50;65.30;18.10;100472.00;;;;5019666;28;20196;-75
2024/03/15 06:39:50;;;;;;;5.88;3.63;;;16.50;66.00;18.20;100479.00;;;;5014606;28;20215;-74
2024/03/15 06:42:23;;;;;;;3.70;3.13;;;16.50;65.30;18.10;100473.00;;;;5019091;28;20275;-76
2024/03/15 06:45:02;;;;;;;8.68;3.45;;;16.50;65.20;18.20;100476.00;;;;5024913;28;20238;-75
2024/03/15 06:47:31;;;;;;;4.10;2.85;;;16.50;65.30;18.20;100476.00;;;;5023346;28;20257;-76
2024/03/15 06:50:20;;;;;;;7.53;3.28;;;16.50;65.30;18.20;100478.00;;;;5020017;28;20231;-76
2024/03/15 06:52:47;;;;;;;4.82;2.90;;;16.50;65.40;18.20;100478.00;;;;5016848;28;20200;-77
2024/03/15 06:55:16;;;;;;;4.47;3.13;;;16.60;65.40;18.20;100475.00;;;;5002039;28;20192;-77
2024/03/15 06:57:45;;;;;;;4.80;3.10;;;16.60;65.40;18.20;100480.00;;;;5006532;28;20207;-76
2024/03/15 07:00:14;;;;;;;5.20;3.13;;;16.60;65.40;18.30;100480.00;;;;5015822;28;20246;-76
2024/03/15 07:02:42;;;;;;;5.07;2.72;;;16.60;65.60;18.30;100479.00;;;;5010305;28;20205;-77
2024/03/15 07:05:11;;;;;;;4.63;3.35;;;16.60;65.60;18.30;100479.00;;;;4998720;28;20232;-72
2024/03/15 07:07:38;;;;;;;4.38;2.83;;;16.70;65.70;18.30;100482.00;;;;5016457;28;20576;-72
2024/03/15 07:10:06;;;;;;;3.78;2.65;;;16.70;65.70;18.40;100492.00;;;;5017482;28;20216;-73
2024/03/15 07:12:34;;;;;;;4.32;2.88;;;16.70;65.60;18.40;100491.00;;;;4999756;28;20196;-72
2024/03/15 07:15:04;;;;;;;4.72;3.85;;;16.70;65.60;18.40;100496.00;;;;4984435;28;20709;-72
2024/03/15 07:17:33;;;;;;;3.88;2.75;;;16.70;65.70;18.40;100500.00;;;;5016708;28;20200;-72
2024/03/15 07:20:03;;;;;;;3.42;2.88;;;16.80;65.60;18.40;100495.00;;;;5033757;28;20208;-72
2024/03/15 07:22:30;;;;;;;3.47;3.03;;;16.80;65.50;18.50;100490.00;;;;5016782;28;20193;-72
2024/03/15 07:24:59;;;;;;;4.90;2.88;;;16.80;65.50;18.50;100490.00;;;;5016290;28;20196;-72
2024/03/15 07:27:26;;;;;;;3.67;2.70;;;16.80;65.50;18.50;100496.00;;;;5023809;28;20211;-73
2024/03/15 07:29:53;;;;;;;12.10;3.08;;;16.90;65.50;18.50;100501.00;;;;5010466;28;20216;-73
2024/03/15 07:32:21;;;;;;;3.83;2.38;;;16.90;65.40;18.60;100494.00;;;;5015921;28;20669;-72
2024/03/15 07:34:48;;;;;;;5.22;2.53;;;16.90;65.40;18.60;100506.00;;;;4999724;28;20258;-72
2024/03/15 07:37:16;;;;;;;4.45;2.47;;;17.00;65.40;18.60;100500.00;;;;4999864;28;20283;-72
2024/03/15 07:39:44;;;;;;;5.97;2.72;;;17.00;65.40;18.60;100502.00;;;;4999268;28;20192;-72
2024/03/15 07:42:11;;;;;;;4.63;2.40;;;17.00;65.40;18.70;100511.00;;;;5000023;28;20203;-73
2024/03/15 07:44:38;;;;;;;3.63;2.38;;;17.00;65.40;18.70;100504.00;;;;5000298;28;20652;-73
2024/03/15 07:47:06;;;;;;;2.97;2.25;;;17.00;65.40;18.70;100510.00;;;;5015894;28;20202;-72
2024/03/15 07:49:34;;;;;;;3.42;2.35;;;17.10;65.40;18.70;100515.00;;;;5016034;28;20227;-73
2024/03/15 07:52:01;;;;;;;3.65;2.88;;;17.10;65.30;18.80;100509.00;;;;5016031;28;20207;-73
2024/03/15 07:54:29;;;;;;;4.28;2.35;;;17.10;65.20;18.80;100517.00;;;;4999759;28;20201;-73
2024/03/15 07:56:56;;;;;;;3.60;2.20;;;17.10;65.10;18.80;100522.00;;;;4999185;28;20208;-74
2024/03/15 07:59:24;;;;;;;4.05;2.38;;;17.10;65.00;18.70;100523.00;;;;4999818;28;20286;-74
2024/03/15 08:01:53;;;;;;;3.55;2.05;;;17.20;65.00;18.70;100523.00;;;;5011660;28;20211;-74
2024/03/15 08:04:20;;;;;;;5.15;2.38;;;17.20;64.90;18.70;100531.00;;;;5019713;28;20238;-74
2024/03/15 08:06:49;;;;;;;4.90;1.95;;;17.20;64.80;18.70;100528.00;;;;5003001;28;20203;-74
2024/03/15 08:09:19;;;;;;;3.90;2.40;;;17.20;65.60;18.70;100528.00;;;;5003316;28;20739;-74
2024/03/15 08:11:47;;;;;;;3.03;1.98;;;17.20;65.00;18.80;100528.00;;;;5014321;28;20195;-74
2024/03/15 08:14:14;;;;;;;4.30;1.98;;;17.20;65.00;18.80;100522.00;;;;5023035;28;20218;-74
2024/03/15 08:16:44;;;;;;;3.42;2.05;;;17.20;65.10;18.80;100524.00;;;;5003167;28;20649;-74
2024/03/15 08:19:11;;;;;;;3.63;1.77;;;17.20;65.10;18.90;100531.00;;;;5015028;28;20196;-74
2024/03/15 08:21:39;;;;;;;4.13;2.80;;;17.30;65.30;18.90;100531.00;;;;5015441;28;20200;-74
2024/03/15 08:24:09;;;;;;;2.95;2.10;;;17.30;65.40;18.90;100524.00;;;;5015465;28;20295;-75
2024/03/15 08:26:36;;;;;;;2.08;1.88;;;17.30;65.30;18.90;100524.00;;;;5015721;28;20200;-74
2024/03/15 08:29:04;;;;;;;2.30;1.83;;;17.40;65.30;19.00;100526.00;;;;5015274;28;20239;-73
2024/03/15 08:31:31;;;;;;;3.03;2.03;;;17.40;65.30;19.00;100523.00;;;;4983246;28;20287;-74
2024/03/15 08:34:00;;;;;;;3.38;2.42;;;17.40;65.30;19.10;100525.00;;;;5002549;28;20210;-74
2024/03/15 08:36:27;;;;;;;3.75;1.90;;;17.50;65.40;19.10;100531.00;;;;4985391;28;20316;-74
2024/03/15 08:38:55;;;;;;;3.90;1.98;;;17.50;65.30;19.20;100528.00;;;;4999150;28;20204;-74
2024/03/15 08:41:22;;;;;;;3.75;1.63;;;17.60;65.40;19.20;100520.00;;;;4998835;28;20260;-71
2024/03/15 08:43:49;;;;;;;3.38;1.90;;;17.60;65.20;19.20;100530.00;;;;4998665;28;20207;-71
2024/03/15 08:46:17;;;;;;;3.10;1.50;;;17.60;65.00;19.20;100520.00;;;;4998699;28;20673;-71
2024/03/15 08:48:44;;;;;;;3.08;1.67;;;17.60;65.00;19.30;100514.00;;;;4982485;28;20230;-71
2024/03/15 08:51:13;;;;;;;3.65;2.28;;;17.70;65.60;19.30;100521.00;;;;4982237;28;20220;-73
2024/03/15 08:53:42;;;;;;;2.95;1.67;;;17.70;65.00;19.30;100531.00;;;;5033795;28;20207;-74
2024/03/15 08:56:09;;;;;;;3.78;2.00;;;17.70;65.00;19.40;100533.00;;;;4985551;28;20204;-74
2024/03/15 08:58:37;;;;;;;2.67;1.60;;;17.80;65.50;19.40;100533.00;;;;4998421;28;20688;-74
2024/03/15 09:01:04;;;;;;;4.63;1.85;;;17.80;64.70;19.40;100532.00;;;;4998670;28;20199;-74
2024/03/15 09:03:33;;;;;;;2.55;1.80;;;17.80;64.60;19.40;100531.00;;;;4998425;28;20200;-74
2024/03/15 09:06:06;;;;;;;8.57;1.58;;;17.80;64.50;19.40;100525.00;;;;5014227;28;20228;-74
2024/03/15 09:08:34;;;;;;;4.50;1.40;;;17.80;64.30;19.40;100529.00;;;;5001917;28;20204;-74
2024/03/15 09:11:02;;;;;;;2.58;1.40;;;17.90;65.10;19.50;100521.00;;;;4999775;28;20196;-74
2024/03/15 09:13:29;;;;;;;2.53;1.73;;;17.90;64.40;19.50;100519.00;;;;5014657;28;20243;-73
2024/03/15 09:15:57;;;;;;;2.75;1.48;;;17.90;65.20;19.60;100523.00;;;;5014810;28;20488;-73
2024/03/15 09:18:24;;;;;;;3.35;1.80;;;18.00;64.80;19.70;100531.00;;;;5014155;28;20291;-75
2024/03/15 09:20:54;;;;;;;4.57;1.75;;;18.00;64.80;19.80;100532.00;;;;4997878;28;20291;-74
2024/03/15 09:23:21;;;;;;;4.07;1.95;;;18.10;64.70;19.80;100539.00;;;;4998830;28;20251;-75
2024/03/15 09:25:48;;;;;;;3.60;1.63;;;18.20;64.50;19.90;100538.00;;;;5002117;28;20208;-75
2024/03/15 09:28:16;;;;;;;2.30;1.30;;;18.20;65.00;19.90;100539.00;;;;5011150;28;20200;-75
2024/03/15 09:30:49;;;;;;;3.45;1.85;;;18.30;64.20;20.00;100540.00;;;;4997998;28;20604;-74
2024/03/15 09:33:18;;;;;;;3.90;1.48;;;18.40;64.30;20.00;100545.00;;;;5009467;28;20605;-74
2024/03/15 09:35:46;;;;;;;3.60;2.00;;;18.40;64.20;20.10;100544.00;;;;5018315;28;20211;-75
2024/03/15 09:38:13;;;;;;;4.18;1.83;;;18.50;64.10;20.20;100533.00;;;;5017572;28;20195;-75
2024/03/15 09:40:40;;;;;;;4.13;2.28;;;18.50;64.00;20.20;100540.00;;;;5017691;28;20211;-76
2024/03/15 09:43:10;;;;;;;4.45;1.83;;;18.60;63.80;20.20;100548.00;;;;5011182;28;20203;-76
2024/03/15 09:45:37;;;;;;;3.08;1.80;;;18.70;63.70;20.30;100549.00;;;;4998585;28;20658;-75
2024/03/15 09:48:05;;;;;;;4.63;2.50;;;18.70;63.40;20.30;100543.00;;;;4997693;28;20276;-75
2024/03/15 09:50:32;;;;;;;2.53;1.75;;;18.70;63.30;20.30;100555.00;;;;4997612;28;20282;-76
2024/03/15 09:53:00;;;;;;;3.85;2.00;;;18.70;63.00;20.40;100549.00;;;;5001770;28;20279;-75
2024/03/15 09:55:27;;;;;;;4.38;1.95;;;18.80;62.90;20.40;100542.00;;;;5017327;28;20594;-74
2024/03/15 09:57:54;;;;;;;4.68;1.63;;;18.80;62.80;20.40;100538.00;;;;5017454;28;20250;-75
2024/03/15 10:00:22;;;;;;;3.15;1.30;;;18.90;62.60;20.40;100545.00;;;;5009057;28;20203;-75
2024/03/15 10:02:49;;;;;;;2.20;1.25;;;18.90;62.40;20.40;100552.00;;;;5000739;28;20196;-75
2024/03/15 10:05:16;;;;;;;4.53;1.40;;;18.90;62.00;20.40;100548.00;;;;5001553;28;20597;-75
2024/03/15 10:07:44;;;;;;;2.13;1.17;;;18.90;62.60;20.40;100557.00;;;;5001635;28;20197;-74
2024/03/15 10:10:11;;;;;;;4.20;1.25;;;18.90;62.60;20.50;100544.00;;;;5008022;28;20218;-75
2024/03/15 10:12:39;;;;;;;2.13;0.90;;;18.90;61.70;20.50;100532.00;;;;5018848;28;20653;-74
2024/03/15 10:15:10;;;;;;;3.25;0.90;;;19.00;61.80;20.40;100549.00;;;;5021228;28;20211;-74
2024/03/15 10:17:39;;;;;;;2.60;1.10;;;19.00;61.50;20.40;100551.00;;;;5010463;28;20303;-74
2024/03/15 10:20:11;;;;;;;2.47;1.00;;;19.00;61.40;20.40;100558.00;;;;5001739;28;20203;-74
2024/03/15 10:22:40;;;;;;;4.20;0.80;;;19.00;61.30;20.40;100561.00;;;;5002186;28;20197;-73
2024/03/15 10:25:15;;;;;;;3.13;0.75;;;18.90;61.30;20.30;100563.00;;;;5001260;28;20636;-73
2024/03/15 10:27:43;;;;;;;2.55;0.98;;;18.90;60.90;20.40;100563.00;;;;5002164;28;20203;-74
2024/03/15 10:30:14;;;;;;;5.43;1.00;;;18.90;61.10;20.30;100563.00;;;;5001012;28;20236;-74
2024/03/15 10:32:42;;;;;;;2.78;1.00;;;18.90;61.30;20.40;100564.00;;;;5001562;28;20250;-74
2024/03/15 10:35:12;;;;;;;4.28;1.60;;;18.90;61.50;20.50;100559.00;;;;5001770;28;20216;-73
2024/03/15 10:37:39;;;;;;;3.22;1.10;;;18.90;61.80;20.60;100556.00;;;;5001711;28;20204;-74
2024/03/15 10:40:08;;;;;;;4.53;0.90;;;19.00;62.00;20.70;100564.00;;;;5000935;28;20212;-73
2024/03/15 10:42:35;;;;;;;6.00;0.75;;;19.10;62.20;20.80;100554.00;;;;5001772;28;20739;-74
2024/03/15 10:45:03;;;;;;;4.50;0.90;;;19.20;62.00;20.90;100553.00;;;;5001197;28;20695;-74
2024/03/15 10:47:30;;;;;;;5.10;0.80;;;19.30;61.90;20.90;100558.00;;;;5001389;28;20200;-73
2024/03/15 10:49:57;;;;;;;3.78;0.98;;;19.30;61.30;21.00;100556.00;;;;5016805;28;20224;-73